createdAt,value
2022-12-16T00:01:15.355Z,100322.46
2022-12-16T00:03:49.211Z,100321.75
2022-12-16T00:06:22.507Z,100311.58
2022-12-16T00:08:51.936Z,100312.55
2022-12-16T00:11:21.060Z,100312.61
2022-12-16T00:13:50.212Z,100325.42
2022-12-16T00:16:21.137Z,100322.95
2022-12-16T00:18:51.944Z,100307.78
2022-12-16T00:21:28.195Z,100309.52
2022-12-16T00:23:57.642Z,100304.55
2022-12-16T00:26:26.364Z,100309.62
2022-12-16T00:28:56.000Z,100311.45
2022-12-16T00:31:24.823Z,100313.20
2022-12-16T00:33:57.987Z,100319.25
2022-12-16T00:36:29.996Z,100320.17
2022-12-16T00:38:58.810Z,100318.59
2022-12-16T00:41:27.530Z,100321.23
2022-12-16T00:43:56.305Z,100317.88
2022-12-16T00:46:25.401Z,100310.34
2022-12-16T00:48:54.463Z,100326.62
2022-12-16T00:51:24.224Z,100316.53
2022-12-16T00:53:52.960Z,100323.36
2022-12-16T00:56:23.296Z,100317.48
2022-12-16T00:58:52.999Z,100311.62
2022-12-16T01:01:23.814Z,100299.80
2022-12-16T01:03:55.554Z,100309.97
2022-12-16T01:06:24.374Z,100314.23
2022-12-16T01:08:53.068Z,100314.33
2022-12-16T01:11:23.945Z,100307.56
2022-12-16T01:13:54.967Z,100311.06
2022-12-16T01:16:24.515Z,100310.20
2022-12-16T01:18:55.708Z,100303.44
2022-12-16T01:21:24.520Z,100309.41
2022-12-16T01:23:55.055Z,100302.58
2022-12-16T01:26:24.365Z,100313.67
2022-12-16T01:28:53.597Z,100318.75
2022-12-16T01:31:24.766Z,100312.02
2022-12-16T01:33:56.558Z,100304.46
2022-12-16T01:36:26.177Z,100296.84
2022-12-16T01:38:55.090Z,100295.98
2022-12-16T01:41:24.056Z,100296.05
2022-12-16T01:43:52.780Z,100279.14
2022-12-16T01:46:24.869Z,100274.06
2022-12-16T01:48:59.366Z,100271.52
2022-12-16T01:51:33.365Z,100265.64
2022-12-16T01:54:06.745Z,100269.90
2022-12-16T01:56:37.527Z,100275.08
2022-12-16T01:59:07.825Z,100272.54
2022-12-16T02:01:37.604Z,100267.48
2022-12-16T02:04:06.495Z,100265.91
2022-12-16T02:06:35.220Z,100259.14
2022-12-16T02:09:07.876Z,100256.59
2022-12-16T02:11:55.814Z,100260.19
2022-12-16T02:14:45.644Z,100248.34
2022-12-16T02:17:20.984Z,100242.52
2022-12-16T02:20:08.916Z,100249.36
2022-12-16T02:22:51.686Z,100261.37
2022-12-16T02:25:47.790Z,100259.77
2022-12-16T02:28:32.482Z,100270.03
2022-12-16T02:31:19.694Z,100259.92
2022-12-16T02:33:59.058Z,100253.19
2022-12-16T02:36:42.074Z,100258.33
2022-12-16T02:39:18.944Z,100251.50
2022-12-16T02:41:54.300Z,100243.87
2022-12-16T02:44:33.969Z,100242.28
2022-12-16T02:47:03.639Z,100244.09
2022-12-16T02:49:54.533Z,100239.01
2022-12-16T02:52:25.709Z,100232.27
2022-12-16T02:54:59.412Z,100217.02
2022-12-16T02:57:48.379Z,100215.17
2022-12-16T03:00:20.560Z,100206.68
2022-12-16T03:02:56.348Z,100209.13
2022-12-16T03:05:30.943Z,100194.70
2022-12-16T03:08:00.455Z,100202.33
2022-12-16T03:10:38.631Z,100202.33
2022-12-16T03:13:14.793Z,100201.44
2022-12-16T03:15:44.504Z,100205.66
2022-12-16T03:18:15.774Z,100204.87
2022-12-16T03:20:50.656Z,100197.23
2022-12-16T03:23:32.487Z,100197.30
2022-12-16T03:26:08.752Z,100207.54
2022-12-16T03:28:48.113Z,100208.43
2022-12-16T03:31:26.677Z,100206.75
2022-12-16T03:34:00.983Z,100198.32
2022-12-16T03:36:34.931Z,100201.81
2022-12-16T03:39:07.332Z,100193.30
2022-12-16T03:41:36.678Z,100188.37
2022-12-16T03:44:07.445Z,100179.78
2022-12-16T03:46:36.356Z,100191.80
2022-12-16T03:49:05.584Z,100177.34
2022-12-16T03:51:34.492Z,100167.23
2022-12-16T03:54:04.107Z,100159.59
2022-12-16T03:56:33.059Z,100161.34
2022-12-16T03:59:03.023Z,100165.64
2022-12-16T04:01:32.174Z,100164.84
2022-12-16T04:04:01.015Z,100160.55
2022-12-16T04:06:29.879Z,100152.91
2022-12-16T04:08:58.637Z,100149.48
2022-12-16T04:11:45.612Z,100147.03
2022-12-16T04:14:33.738Z,100147.89
2022-12-16T04:17:33.524Z,100148.69
2022-12-16T04:20:20.806Z,100146.23
2022-12-16T04:23:08.747Z,100156.32
2022-12-16T04:25:40.066Z,100143.60
2022-12-16T04:28:11.527Z,100149.58
2022-12-16T04:30:42.520Z,100151.33
2022-12-16T04:33:33.362Z,100149.58
2022-12-16T04:36:20.157Z,100148.69
2022-12-16T04:39:07.177Z,100147.77
2022-12-16T04:41:54.265Z,100150.38
2022-12-16T04:44:41.783Z,100140.27
2022-12-16T04:47:29.587Z,100140.20
2022-12-16T04:50:19.652Z,100138.52
2022-12-16T04:53:09.630Z,100140.27
2022-12-16T04:56:03.890Z,100131.84
2022-12-16T04:58:53.929Z,100130.09
2022-12-16T05:01:41.152Z,100136.13
2022-12-16T05:04:28.277Z,100142.10
2022-12-16T05:07:15.363Z,100135.27
2022-12-16T05:10:02.991Z,100131.92
2022-12-16T05:12:51.131Z,100120.86
2022-12-16T05:15:39.066Z,100123.34
2022-12-16T05:18:35.001Z,100126.75
2022-12-16T05:21:31.733Z,100116.58
2022-12-16T05:24:19.431Z,100114.92
2022-12-16T05:27:07.291Z,100124.20
2022-12-16T05:29:54.835Z,100123.47
2022-12-16T05:32:42.095Z,100126.02
2022-12-16T05:35:29.874Z,100129.50
2022-12-16T05:38:17.031Z,100135.48
2022-12-16T05:41:12.357Z,100134.69
2022-12-16T05:43:59.704Z,100144.06
2022-12-16T05:46:47.412Z,100134.75
2022-12-16T05:49:35.115Z,100142.53
2022-12-16T05:52:24.459Z,100146.73
2022-12-16T05:55:14.077Z,100147.68
2022-12-16T05:58:01.551Z,100145.20
2022-12-16T06:00:48.918Z,100140.11
2022-12-16T06:03:37.249Z,100144.40
2022-12-16T06:06:27.907Z,100153.78
2022-12-16T06:09:15.675Z,100151.23
2022-12-16T06:12:04.685Z,100147.09
2022-12-16T06:14:52.190Z,100144.55
2022-12-16T06:17:40.847Z,100145.50
2022-12-16T06:20:30.324Z,100149.00
2022-12-16T06:23:22.544Z,100149.00
2022-12-16T06:26:12.566Z,100155.03
2022-12-16T06:29:00.227Z,100154.30
2022-12-16T06:31:47.638Z,100156.90
2022-12-16T06:34:35.196Z,100137.44
2022-12-16T06:37:22.208Z,100129.00
2022-12-16T06:40:09.376Z,100147.73
2022-12-16T06:42:59.403Z,100139.24
2022-12-16T06:45:47.084Z,100142.58
2022-12-16T06:48:48.754Z,100122.22
2022-12-16T06:51:35.787Z,100129.06
2022-12-16T06:54:23.481Z,100128.27
2022-12-16T06:57:10.390Z,100146.13
2022-12-16T06:59:56.830Z,100154.66
2022-12-16T07:02:44.386Z,100158.13
2022-12-16T07:05:31.930Z,100161.62
2022-12-16T07:08:19.638Z,100157.41
2022-12-16T07:11:16.752Z,100149.84
2022-12-16T07:14:05.831Z,100150.79
2022-12-16T07:16:53.309Z,100145.70
2022-12-16T07:19:41.524Z,100156.83
2022-12-16T07:22:29.228Z,100152.65
2022-12-16T07:25:16.351Z,100156.14
2022-12-16T07:28:10.711Z,100150.25
2022-12-16T07:31:02.336Z,100162.03
2022-12-16T07:33:49.664Z,100162.92
2022-12-16T07:36:37.299Z,100161.23
2022-12-16T07:39:27.437Z,100157.09
2022-12-16T07:42:15.485Z,100165.53
2022-12-16T07:45:02.472Z,100157.89
2022-12-16T07:47:49.596Z,100153.75
2022-12-16T07:50:37.655Z,100148.80
2022-12-16T07:53:31.243Z,100151.47
2022-12-16T07:56:18.826Z,100139.69
2022-12-16T07:59:06.055Z,100139.77
2022-12-16T08:01:53.747Z,100138.08
2022-12-16T08:04:45.384Z,100141.52
2022-12-16T08:07:33.129Z,100142.37
2022-12-16T08:10:20.181Z,100138.23
2022-12-16T08:13:07.826Z,100140.98
2022-12-16T08:15:57.888Z,100147.02
2022-12-16T08:18:45.098Z,100141.04
2022-12-16T08:21:35.273Z,100136.75
2022-12-16T08:24:25.466Z,100141.04
2022-12-16T08:27:13.091Z,100129.25
2022-12-16T08:30:00.963Z,100127.70
2022-12-16T08:32:47.337Z,100124.30
2022-12-16T08:35:34.651Z,100120.95
2022-12-16T08:38:22.001Z,100116.72
2022-12-16T08:41:09.811Z,100127.80
2022-12-16T08:43:57.771Z,100139.73
2022-12-16T08:46:45.489Z,100138.04
2022-12-16T08:49:33.067Z,100130.39
2022-12-16T08:52:20.754Z,100138.98
2022-12-16T08:55:27.783Z,100139.04
2022-12-16T08:58:16.563Z,100122.16
2022-12-16T09:01:07.888Z,100118.15
2022-12-16T09:03:56.023Z,100107.27
2022-12-16T09:06:58.354Z,100090.38
2022-12-16T09:09:46.169Z,100089.44
2022-12-16T09:12:48.068Z,100080.19
2022-12-16T09:15:35.753Z,100077.78
2022-12-16T09:18:25.755Z,100071.00
2022-12-16T09:21:13.281Z,100060.80
2022-12-16T09:24:00.291Z,100048.16
2022-12-16T09:26:48.747Z,100059.25
2022-12-16T09:29:45.194Z,100052.55
2022-12-16T09:32:33.835Z,100047.59
2022-12-16T09:35:23.571Z,100051.31
2022-12-16T09:38:12.808Z,100050.52
2022-12-16T09:41:04.972Z,100048.02
2022-12-16T09:44:15.072Z,100042.20
2022-12-16T09:47:25.958Z,100038.95
2022-12-16T09:50:14.201Z,100029.88
2022-12-16T09:53:05.314Z,100030.19
2022-12-16T09:55:58.465Z,100028.58
2022-12-16T09:58:49.487Z,100034.71
2022-12-16T10:01:37.578Z,100026.52
2022-12-16T10:04:26.667Z,100024.20
2022-12-16T10:07:30.455Z,100026.20
2022-12-16T10:10:26.492Z,100027.18
2022-12-16T10:13:21.631Z,100027.36
2022-12-16T10:16:14.970Z,100028.16
2022-12-16T10:19:11.448Z,100032.38
2022-12-16T10:22:07.960Z,100026.55
2022-12-16T10:25:05.613Z,100024.93
2022-12-16T10:28:01.972Z,100023.23
2022-12-16T10:30:51.091Z,100015.62
2022-12-16T10:33:46.193Z,100009.80
2022-12-16T10:36:39.213Z,100006.23
2022-12-16T10:39:41.072Z,100012.18
2022-12-16T10:42:38.645Z,99999.52
2022-12-16T10:45:40.141Z,99989.31
2022-12-16T10:48:28.590Z,99985.91
2022-12-16T10:51:18.129Z,99991.18
2022-12-16T10:54:07.256Z,99986.20
2022-12-16T10:57:09.623Z,99982.89
2022-12-16T10:59:59.580Z,99972.89
2022-12-16T11:02:49.036Z,99976.45
2022-12-16T11:05:50.119Z,99978.28
2022-12-16T11:08:48.975Z,99975.98
2022-12-16T11:11:42.937Z,99982.09
2022-12-16T11:14:50.372Z,99983.03
2022-12-16T11:17:49.043Z,99977.97
2022-12-16T11:20:39.075Z,99967.11
2022-12-16T11:23:38.807Z,99970.66
2022-12-16T11:26:36.720Z,99968.11
2022-12-16T11:29:36.609Z,99969.83
2022-12-16T11:32:34.269Z,99974.19
2022-12-16T11:35:24.463Z,99971.72
2022-12-16T11:38:13.448Z,99969.28
2022-12-16T11:41:01.460Z,99961.74
2022-12-16T11:43:50.972Z,99965.97
2022-12-16T11:46:43.573Z,99950.76
2022-12-16T11:49:40.807Z,99950.80
2022-12-16T11:52:39.205Z,99951.84
2022-12-16T11:58:55.288Z,99962.09
2022-12-16T12:01:45.866Z,99956.95
2022-12-16T12:04:34.435Z,99958.58
2022-12-16T12:07:45.303Z,99967.94
2022-12-16T12:10:56.446Z,99962.75
2022-12-16T12:14:02.376Z,99962.67
2022-12-16T12:16:59.861Z,99968.63
2022-12-16T12:19:58.872Z,99967.78
2022-12-16T12:22:53.611Z,99959.30
2022-12-16T12:25:50.608Z,99949.98
2022-12-16T12:28:47.800Z,99943.25
2022-12-16T12:31:48.799Z,99944.22
2022-12-16T12:34:43.417Z,99947.78
2022-12-16T12:37:36.106Z,99949.55
2022-12-16T12:40:40.237Z,99963.95
2022-12-16T12:43:42.474Z,99964.73
2022-12-16T12:46:39.652Z,99958.69
2022-12-16T12:49:35.658Z,99950.98
2022-12-16T12:52:34.027Z,99952.54
2022-12-16T12:55:29.424Z,99961.09
2022-12-16T12:58:19.924Z,99962.67
2022-12-16T13:01:13.349Z,99959.19
2022-12-16T13:04:06.658Z,99962.40
2022-12-16T13:06:56.222Z,99960.61
2022-12-16T13:09:47.079Z,99965.60
2022-12-16T13:12:49.011Z,99957.78
2022-12-16T13:15:52.768Z,99971.36
2022-12-16T13:18:45.344Z,99972.13
2022-12-16T13:22:02.789Z,99973.88
2022-12-16T13:24:59.352Z,99967.06
2022-12-16T13:27:48.350Z,99968.57
2022-12-16T13:30:44.105Z,99964.31
2022-12-16T13:34:03.974Z,99967.55
2022-12-16T13:36:54.320Z,99976.78
2022-12-16T13:39:46.320Z,99970.70
2022-12-16T13:43:13.237Z,99985.02
2022-12-16T13:46:22.636Z,99972.16
2022-12-16T13:49:10.355Z,99962.69
2022-12-16T13:52:20.534Z,99958.47
2022-12-16T13:55:21.422Z,99966.12
2022-12-16T13:58:18.209Z,99985.66
2022-12-16T14:01:17.356Z,100000.91
2022-12-16T14:04:08.074Z,100004.28
2022-12-16T14:06:57.276Z,99994.75
2022-12-16T14:09:52.572Z,99998.88
2022-12-16T14:13:04.475Z,100008.10
2022-12-16T14:16:05.054Z,100007.93
2022-12-16T14:19:03.695Z,100006.95
2022-12-16T14:21:59.658Z,100011.80
2022-12-16T14:24:48.380Z,100014.34
2022-12-16T14:27:38.931Z,99999.86
2022-12-16T14:30:38.329Z,99998.06
2022-12-16T14:33:43.131Z,100003.80
2022-12-16T14:36:40.293Z,100024.91
2022-12-16T14:39:38.735Z,100029.12
2022-12-16T14:42:38.297Z,100041.82
2022-12-16T14:45:41.094Z,100034.98
2022-12-16T14:48:49.450Z,100034.89
2022-12-16T14:51:46.932Z,100041.64
2022-12-16T14:54:43.791Z,100046.73
2022-12-16T14:57:34.358Z,100042.36
2022-12-16T15:00:34.460Z,100046.66
2022-12-16T15:03:31.915Z,100056.05
2022-12-16T15:06:22.073Z,100052.56
2022-12-16T15:09:13.017Z,100047.46
2022-12-16T15:12:03.006Z,100061.95
2022-12-16T15:14:53.798Z,100072.95
2022-12-16T15:17:44.568Z,100076.31
2022-12-16T15:20:38.941Z,100079.70
2022-12-16T15:23:35.606Z,100076.27
2022-12-16T15:26:23.830Z,100068.61
2022-12-16T15:29:11.466Z,100070.22
2022-12-16T15:32:03.384Z,100082.92
2022-12-16T15:35:03.923Z,100088.82
2022-12-16T15:38:03.625Z,100091.37
2022-12-16T15:40:57.283Z,100102.32
2022-12-16T15:43:48.650Z,100092.98
2022-12-16T15:46:39.210Z,100094.72
2022-12-16T15:49:37.890Z,100098.16
2022-12-16T15:52:48.987Z,100098.97
2022-12-16T15:55:47.388Z,100110.91
2022-12-16T15:58:39.938Z,100106.53
2022-12-16T16:01:30.942Z,100103.17
2022-12-16T16:04:32.508Z,100111.63
2022-12-16T16:07:20.153Z,100107.34
2022-12-16T16:10:10.486Z,100104.78
2022-12-16T16:12:58.201Z,100106.48
2022-12-16T16:15:46.235Z,100106.48
2022-12-16T16:18:33.781Z,100093.73
2022-12-16T16:21:21.167Z,100097.09
2022-12-16T16:24:10.872Z,100105.63
2022-12-16T16:27:15.841Z,100108.17
2022-12-16T16:30:03.240Z,100114.87
2022-12-16T16:32:51.406Z,100114.87
2022-12-16T16:35:40.929Z,100099.58
2022-12-16T16:38:30.411Z,100113.13
2022-12-16T16:41:18.109Z,100126.69
2022-12-16T16:44:07.285Z,100138.53
2022-12-16T16:46:59.319Z,100134.33
2022-12-16T16:49:49.723Z,100131.78
2022-12-16T16:52:39.561Z,100122.39
2022-12-16T16:55:34.167Z,100130.03
2022-12-16T16:58:31.089Z,100145.33
2022-12-16T17:01:18.916Z,100152.17
2022-12-16T17:04:18.489Z,100153.03
2022-12-16T17:07:09.005Z,100159.88
2022-12-16T17:09:57.773Z,100166.66
2022-12-16T17:12:47.734Z,100159.88
2022-12-16T17:15:42.713Z,100171.76
2022-12-16T17:18:34.752Z,100182.76
2022-12-16T17:21:23.975Z,100176.77
2022-12-16T17:24:12.313Z,100174.22
2022-12-16T17:27:02.777Z,100177.52
2022-12-16T17:29:50.766Z,100180.95
2022-12-16T17:32:38.652Z,100185.16
2022-12-16T17:35:29.783Z,100185.97
2022-12-16T17:38:16.844Z,100180.95
2022-12-16T17:41:14.409Z,100195.31
2022-12-16T17:44:02.685Z,100195.22
2022-12-16T17:46:49.962Z,100191.81
2022-12-16T17:49:37.972Z,100199.46
2022-12-16T17:52:26.395Z,100205.41
2022-12-16T17:55:13.790Z,100205.50
2022-12-16T17:58:01.773Z,100212.20
2022-12-16T18:00:49.034Z,100214.75
2022-12-16T18:03:36.876Z,100207.11
2022-12-16T18:06:27.571Z,100207.05
2022-12-16T18:09:14.948Z,100212.15
2022-12-16T18:12:02.746Z,100226.55
2022-12-16T18:14:54.484Z,100235.09
2022-12-16T18:17:41.908Z,100234.28
2022-12-16T18:20:29.692Z,100241.09
2022-12-16T18:23:17.035Z,100242.84
2022-12-16T18:26:14.763Z,100246.28
2022-12-16T18:29:02.128Z,100242.84
2022-12-16T18:31:49.722Z,100247.08
2022-12-16T18:34:37.792Z,100248.74
2022-12-16T18:37:29.335Z,100250.48
2022-12-16T18:40:17.151Z,100259.03
2022-12-16T18:43:04.910Z,100257.42
2022-12-16T18:46:01.116Z,100257.48
2022-12-16T18:48:48.821Z,100263.52
2022-12-16T18:51:37.266Z,100260.97
2022-12-16T18:54:27.434Z,100261.83
2022-12-16T18:57:15.019Z,100269.56
2022-12-16T19:00:02.647Z,100275.58
2022-12-16T19:02:50.010Z,100290.97
2022-12-16T19:05:46.735Z,100292.71
2022-12-16T19:08:35.125Z,100290.16
2022-12-16T19:11:26.152Z,100296.12
2022-12-16T19:14:17.490Z,100302.11
2022-12-16T19:17:16.945Z,100303.82
2022-12-16T19:20:07.381Z,100309.01
2022-12-16T19:22:55.250Z,100312.51
2022-12-16T19:25:44.555Z,100319.36
2022-12-16T19:28:33.093Z,100322.77
2022-12-16T19:31:20.832Z,100320.21
2022-12-16T19:34:12.716Z,100320.21
2022-12-16T19:37:00.635Z,100322.81
2022-12-16T19:39:47.949Z,100321.22
2022-12-16T19:42:35.577Z,100309.27
2022-12-16T19:45:24.676Z,100315.17
2022-12-16T19:48:19.946Z,100325.37
2022-12-16T19:51:07.414Z,100349.20
2022-12-16T19:53:56.183Z,100352.61
2022-12-16T19:56:43.989Z,100353.50
2022-12-16T19:59:39.497Z,100347.60
2022-12-16T20:02:31.082Z,100351.81
2022-12-16T20:05:18.961Z,100362.02
2022-12-16T20:08:07.134Z,100366.31
2022-12-16T20:11:00.572Z,100372.30
2022-12-16T20:13:50.555Z,100379.95
2022-12-16T20:16:40.736Z,100373.10
2022-12-16T20:19:28.378Z,100383.30
2022-12-16T20:22:17.260Z,100364.56
2022-12-16T20:25:09.523Z,100363.77
2022-12-16T20:28:11.956Z,100368.80
2022-12-16T20:31:02.044Z,100366.25
2022-12-16T20:33:49.566Z,100369.66
2022-12-16T20:36:38.501Z,100368.71
2022-12-16T20:39:28.408Z,100368.71
2022-12-16T20:42:15.735Z,100378.11
2022-12-16T20:45:03.065Z,100375.56
2022-12-16T20:47:50.581Z,100369.60
2022-12-16T20:50:39.172Z,100372.06
2022-12-16T20:53:27.177Z,100368.66
2022-12-16T20:56:24.035Z,100359.20
2022-12-16T20:59:11.893Z,100361.66
2022-12-16T21:02:25.193Z,100359.05
2022-12-16T21:05:14.612Z,100370.84
2022-12-16T21:08:03.225Z,100378.44
2022-12-16T21:10:51.657Z,100386.03
2022-12-16T21:13:39.324Z,100391.92
2022-12-16T21:16:28.513Z,100390.17
2022-12-16T21:19:16.242Z,100397.03
2022-12-16T21:22:03.723Z,100396.94
2022-12-16T21:24:51.763Z,100401.17
2022-12-16T21:27:39.312Z,100396.08
2022-12-16T21:30:35.451Z,100408.81
2022-12-16T21:33:36.576Z,100409.62
2022-12-16T21:36:27.580Z,100421.56
2022-12-16T21:39:14.961Z,100415.52
2022-12-16T21:42:04.788Z,100418.12
2022-12-16T21:44:53.461Z,100430.88
2022-12-16T21:47:44.010Z,100446.16
2022-12-16T21:50:31.555Z,100449.61
2022-12-16T21:53:34.204Z,100452.16
2022-12-16T21:56:21.184Z,100454.70
2022-12-16T21:59:08.472Z,100449.61
2022-12-16T22:01:57.296Z,100447.86
2022-12-16T22:04:44.944Z,100446.97
2022-12-16T22:07:34.917Z,100445.30
2022-12-16T22:10:22.768Z,100441.95
2022-12-16T22:13:10.245Z,100445.25
2022-12-16T22:16:02.726Z,100450.25
2022-12-16T22:19:00.802Z,100458.84
2022-12-16T22:21:48.235Z,100467.36
2022-12-16T22:24:35.767Z,100473.28
2022-12-16T22:27:23.051Z,100480.93
2022-12-16T22:30:15.985Z,100492.78
2022-12-16T22:33:04.539Z,100488.48
2022-12-16T22:35:52.415Z,100501.23
2022-12-16T22:38:40.031Z,100498.68
2022-12-16T22:41:28.930Z,100494.37
2022-12-16T22:44:16.234Z,100493.52
2022-12-16T22:47:03.705Z,100509.67
2022-12-16T22:49:50.963Z,100504.58
2022-12-16T22:52:42.721Z,100513.11
2022-12-16T22:55:30.310Z,100518.27
2022-12-16T22:58:18.048Z,100513.97
2022-12-16T23:01:09.451Z,100513.97
2022-12-16T23:03:58.203Z,100524.17
2022-12-16T23:06:45.928Z,100515.73
2022-12-16T23:09:33.500Z,100513.97
2022-12-16T23:12:20.683Z,100513.91
2022-12-16T23:15:08.065Z,100513.11
2022-12-16T23:17:55.536Z,100515.73
2022-12-16T23:20:43.831Z,100509.77
2022-12-16T23:23:31.636Z,100512.38
2022-12-16T23:26:20.735Z,100526.81
2022-12-16T23:29:09.993Z,100531.02
2022-12-16T23:31:59.751Z,100524.97
2022-12-16T23:34:47.168Z,100528.47
2022-12-16T23:37:34.506Z,100532.77
2022-12-16T23:40:22.529Z,100524.33
2022-12-16T23:43:12.988Z,100520.89
2022-12-16T23:46:03.906Z,100515.73
2022-12-16T23:48:50.880Z,100524.27
2022-12-16T23:51:39.301Z,100531.02
2022-12-16T23:54:27.411Z,100533.57
2022-12-16T23:57:16.796Z,100545.45
